createdAt,value
2019-02-18T00:02:12.626Z,43.00
2019-02-18T00:04:40.923Z,42.70
2019-02-18T00:07:14.621Z,43.00
2019-02-18T00:09:39.605Z,43.00
2019-02-18T00:12:08.191Z,43.00
2019-02-18T00:14:36.893Z,43.00
2019-02-18T00:17:05.569Z,42.90
2019-02-18T00:19:34.151Z,42.90
2019-02-18T00:22:02.840Z,43.00
2019-02-18T00:24:31.532Z,43.00
2019-02-18T00:26:59.912Z,43.10
2019-02-18T00:29:28.218Z,43.30
2019-02-18T00:31:56.857Z,43.40
2019-02-18T00:34:25.154Z,43.30
2019-02-18T00:36:53.719Z,43.30
2019-02-18T00:39:22.123Z,43.60
2019-02-18T00:41:50.513Z,43.50
2019-02-18T00:44:18.910Z,43.60
2019-02-18T00:46:47.548Z,43.30
2019-02-18T00:49:16.145Z,43.30
2019-02-18T00:51:44.461Z,43.50
2019-02-18T00:54:13.093Z,43.40
2019-02-18T00:56:41.391Z,43.50
2019-02-18T00:59:09.950Z,43.50
2019-02-18T01:01:38.271Z,43.50
2019-02-18T01:04:06.586Z,43.60
2019-02-18T01:06:34.905Z,43.70
2019-02-18T01:09:04.775Z,43.90
2019-02-18T01:11:33.073Z,43.80
2019-02-18T01:14:01.779Z,43.60
2019-02-18T01:16:30.078Z,43.60
2019-02-18T01:18:58.373Z,43.80
2019-02-18T01:21:26.782Z,43.50
2019-02-18T01:23:55.315Z,42.40
2019-02-18T01:26:23.611Z,42.20
2019-02-18T01:28:52.443Z,42.40
2019-02-18T01:31:21.344Z,42.40
2019-02-18T01:33:49.691Z,42.50
2019-02-18T01:36:18.301Z,42.90
2019-02-18T01:39:06.162Z,42.80
2019-02-18T01:41:34.436Z,42.80
2019-02-18T01:44:02.742Z,43.00
2019-02-18T01:46:31.086Z,43.00
2019-02-18T01:48:59.747Z,43.00
2019-02-18T01:51:28.027Z,43.10
2019-02-18T01:53:56.349Z,43.20
2019-02-18T01:56:24.707Z,43.40
2019-02-18T01:58:52.983Z,43.40
2019-02-18T02:01:21.642Z,43.30
2019-02-18T02:03:49.948Z,43.40
2019-02-18T02:06:18.239Z,43.30
2019-02-18T02:08:46.522Z,43.30
2019-02-18T02:11:14.834Z,43.20
2019-02-18T02:13:43.122Z,43.30
2019-02-18T02:16:11.715Z,43.30
2019-02-18T02:18:40.293Z,43.30
2019-02-18T02:21:08.597Z,43.30
2019-02-18T02:23:39.297Z,43.30
2019-02-18T02:26:07.590Z,43.30
2019-02-18T02:28:35.879Z,43.30
2019-02-18T02:31:04.199Z,43.30
2019-02-18T02:33:32.478Z,43.30
2019-02-18T02:36:00.790Z,43.30
2019-02-18T02:38:29.066Z,43.30
2019-02-18T02:40:57.761Z,43.30
2019-02-18T02:43:26.055Z,43.30
2019-02-18T02:45:54.429Z,43.30
2019-02-18T02:48:22.998Z,43.30
2019-02-18T02:50:51.584Z,43.30
2019-02-18T02:53:21.522Z,43.30
2019-02-18T02:55:49.789Z,43.30
2019-02-18T02:58:18.452Z,43.30
2019-02-18T03:00:47.052Z,43.10
2019-02-18T03:03:15.336Z,43.20
2019-02-18T03:05:43.630Z,43.20
2019-02-18T03:08:20.026Z,43.20
2019-02-18T03:10:42.298Z,43.10
2019-02-18T03:13:10.588Z,43.20
2019-02-18T03:15:38.886Z,43.10
2019-02-18T03:18:07.170Z,43.20
2019-02-18T03:20:35.546Z,43.30
2019-02-18T03:23:03.854Z,43.30
2019-02-18T03:25:33.098Z,43.30
2019-02-18T03:28:25.487Z,43.20
2019-02-18T03:31:02.845Z,43.30
2019-02-18T03:33:46.450Z,43.30
2019-02-18T03:36:14.843Z,43.20
2019-02-18T03:38:43.187Z,43.30
2019-02-18T03:41:11.792Z,43.40
2019-02-18T03:43:40.099Z,43.40
2019-02-18T03:46:08.387Z,43.20
2019-02-18T03:48:36.673Z,43.80
2019-02-18T03:51:04.965Z,43.30
2019-02-18T03:53:33.275Z,43.20
2019-02-18T03:56:01.565Z,43.30
2019-02-18T03:58:29.943Z,43.20
2019-02-18T04:00:58.289Z,43.20
2019-02-18T04:03:26.890Z,43.30
2019-02-18T04:05:55.574Z,43.40
2019-02-18T04:08:23.889Z,43.30
2019-02-18T04:10:52.541Z,43.30
2019-02-18T04:13:20.838Z,43.20
2019-02-18T04:15:49.407Z,43.30
2019-02-18T04:18:18.086Z,43.20
2019-02-18T04:20:46.365Z,43.30
2019-02-18T04:23:14.655Z,43.30
2019-02-18T04:25:43.331Z,43.20
2019-02-18T04:28:11.629Z,43.20
2019-02-18T04:30:39.931Z,43.30
2019-02-18T04:33:08.220Z,43.20
2019-02-18T04:35:36.526Z,43.10
2019-02-18T04:38:04.811Z,43.20
2019-02-18T04:40:33.603Z,43.30
2019-02-18T04:43:02.183Z,43.10
2019-02-18T04:45:30.780Z,43.30
2019-02-18T04:47:59.150Z,43.10
2019-02-18T04:50:27.501Z,43.20
2019-02-18T04:52:55.810Z,43.30
2019-02-18T04:55:24.391Z,43.30
2019-02-18T04:57:52.679Z,43.20
2019-02-18T05:00:21.217Z,43.20
2019-02-18T05:02:49.573Z,43.20
2019-02-18T05:05:18.209Z,43.20
2019-02-18T05:07:46.578Z,43.20
2019-02-18T05:10:14.871Z,43.60
2019-02-18T05:12:43.159Z,43.20
2019-02-18T05:15:11.472Z,43.20
2019-02-18T05:17:39.775Z,43.10
2019-02-18T05:20:08.730Z,43.30
2019-02-18T05:22:37.025Z,43.20
2019-02-18T05:25:06.989Z,43.70
2019-02-18T05:27:35.372Z,43.10
2019-02-18T05:30:05.006Z,43.30
2019-02-18T05:32:33.674Z,43.20
2019-02-18T05:35:02.248Z,43.30
2019-02-18T05:37:30.827Z,43.20
2019-02-18T05:39:59.115Z,43.20
2019-02-18T05:42:27.683Z,43.10
2019-02-18T05:44:55.984Z,43.20
2019-02-18T05:47:24.266Z,43.10
2019-02-18T05:49:52.924Z,43.10
2019-02-18T05:52:21.512Z,43.10
2019-02-18T05:54:49.813Z,43.30
2019-02-18T05:57:18.371Z,43.20
2019-02-18T05:59:46.737Z,43.10
2019-02-18T06:02:15.331Z,43.00
2019-02-18T06:04:43.650Z,42.80
2019-02-18T06:07:12.296Z,42.60
2019-02-18T06:09:40.881Z,42.30
2019-02-18T06:12:09.162Z,42.80
2019-02-18T06:14:37.457Z,42.80
2019-02-18T06:17:05.738Z,42.90
2019-02-18T06:19:34.031Z,42.70
2019-02-18T06:22:02.318Z,42.60
2019-02-18T06:24:30.948Z,42.60
2019-02-18T06:26:59.231Z,42.10
2019-02-18T06:29:27.539Z,42.10
2019-02-18T06:31:55.840Z,41.90
2019-02-18T06:34:24.463Z,41.80
2019-02-18T06:36:53.049Z,41.40
2019-02-18T06:39:21.358Z,41.80
2019-02-18T06:41:49.906Z,41.20
2019-02-18T06:44:19.825Z,41.10
2019-02-18T06:46:52.626Z,41.30
2019-02-18T06:49:21.191Z,41.30
2019-02-18T06:51:49.773Z,41.40
2019-02-18T06:54:18.363Z,40.50
2019-02-18T06:56:54.061Z,40.40
2019-02-18T06:59:26.990Z,40.40
2019-02-18T07:01:59.979Z,40.50
2019-02-18T07:04:41.949Z,40.40
2019-02-18T07:07:28.686Z,40.40
2019-02-18T07:09:58.646Z,40.80
2019-02-18T07:12:34.878Z,40.40
2019-02-18T07:15:03.182Z,40.50
2019-02-18T07:17:31.731Z,40.40
2019-02-18T07:20:00.338Z,40.40
2019-02-18T07:22:28.825Z,40.30
2019-02-18T07:24:57.132Z,40.30
2019-02-18T07:27:25.444Z,40.50
2019-02-18T07:29:53.724Z,40.50
2019-02-18T07:32:22.302Z,40.50
2019-02-18T07:34:50.592Z,40.50
2019-02-18T07:37:18.899Z,40.30
2019-02-18T07:39:47.204Z,40.30
2019-02-18T07:42:15.487Z,40.40
2019-02-18T07:44:43.791Z,40.30
2019-02-18T07:47:12.379Z,40.80
2019-02-18T07:49:40.667Z,40.50
2019-02-18T07:52:08.979Z,40.60
2019-02-18T07:54:37.614Z,40.50
2019-02-18T07:57:06.202Z,40.70
2019-02-18T07:59:34.784Z,40.70
2019-02-18T08:02:03.084Z,40.50
2019-02-18T08:04:31.643Z,40.60
2019-02-18T08:06:59.952Z,40.60
2019-02-18T08:09:28.606Z,40.80
2019-02-18T08:11:56.893Z,40.90
2019-02-18T08:14:25.465Z,40.90
2019-02-18T08:16:53.751Z,40.80
2019-02-18T08:19:22.327Z,40.70
2019-02-18T08:21:50.625Z,40.70
2019-02-18T08:24:18.918Z,40.90
2019-02-18T08:26:47.575Z,40.90
2019-02-18T08:29:15.874Z,41.00
2019-02-18T08:31:44.434Z,41.00
2019-02-18T08:34:13.006Z,41.10
2019-02-18T08:36:41.597Z,41.10
2019-02-18T08:39:10.175Z,41.20
2019-02-18T08:41:38.532Z,41.10
2019-02-18T08:44:07.140Z,41.20
2019-02-18T08:46:35.723Z,41.40
2019-02-18T08:49:04.031Z,41.30
2019-02-18T08:51:32.303Z,41.50
2019-02-18T08:54:00.599Z,41.60
2019-02-18T08:56:29.236Z,41.50
2019-02-18T08:58:57.541Z,41.60
2019-02-18T09:01:25.817Z,41.40
2019-02-18T09:03:54.179Z,41.50
2019-02-18T09:06:22.754Z,41.70
2019-02-18T09:08:51.336Z,41.80
2019-02-18T09:11:19.924Z,41.50
2019-02-18T09:13:48.235Z,41.60
2019-02-18T09:16:16.509Z,41.60
2019-02-18T09:18:44.817Z,41.60
2019-02-18T09:21:13.444Z,41.60
2019-02-18T09:23:43.424Z,41.60
2019-02-18T09:26:13.344Z,41.80
2019-02-18T09:28:41.638Z,42.00
2019-02-18T09:31:09.945Z,41.90
2019-02-18T09:33:40.003Z,40.50
2019-02-18T09:36:08.627Z,39.20
2019-02-18T09:38:36.917Z,39.20
2019-02-18T09:41:05.494Z,39.80
2019-02-18T09:43:34.068Z,40.00
2019-02-18T09:46:02.726Z,40.50
2019-02-18T09:48:32.709Z,40.30
2019-02-18T09:51:01.034Z,40.60
2019-02-18T09:53:29.640Z,39.30
2019-02-18T09:55:58.223Z,39.10
2019-02-18T09:58:28.100Z,39.80
2019-02-18T10:00:56.724Z,40.00
2019-02-18T10:03:31.506Z,40.30
2019-02-18T10:05:58.198Z,40.00
2019-02-18T10:08:26.782Z,39.70
2019-02-18T10:10:56.153Z,40.00
2019-02-18T10:13:24.664Z,40.30
2019-02-18T10:15:53.245Z,40.20
2019-02-18T10:18:21.824Z,40.50
2019-02-18T10:20:50.410Z,40.70
2019-02-18T10:23:19.038Z,41.00
2019-02-18T10:25:47.682Z,40.20
2019-02-18T10:28:15.990Z,40.40
2019-02-18T10:30:44.367Z,40.60
2019-02-18T10:33:13.096Z,40.30
2019-02-18T10:35:41.648Z,40.70
2019-02-18T10:38:10.271Z,40.50
2019-02-18T10:40:38.910Z,40.80
2019-02-18T10:43:07.225Z,41.00
2019-02-18T10:45:35.530Z,41.00
2019-02-18T10:48:04.155Z,41.10
2019-02-18T10:50:32.471Z,41.30
2019-02-18T10:53:01.327Z,41.30
2019-02-18T10:55:29.819Z,41.30
2019-02-18T11:01:39.775Z,41.30
2019-02-18T11:04:08.363Z,41.60
2019-02-18T11:06:36.663Z,41.70
2019-02-18T11:09:09.011Z,41.70
2019-02-18T11:11:37.599Z,41.80
2019-02-18T11:14:05.935Z,41.90
2019-02-18T11:16:34.610Z,42.00
2019-02-18T11:19:02.924Z,42.00
2019-02-18T11:21:31.633Z,42.30
2019-02-18T11:23:59.985Z,42.60
2019-02-18T11:26:28.271Z,42.80
2019-02-18T11:28:56.570Z,42.70
2019-02-18T11:31:25.332Z,42.70
2019-02-18T11:33:53.922Z,42.90
2019-02-18T11:36:22.510Z,42.90
2019-02-18T11:38:50.817Z,42.90
2019-02-18T11:41:27.026Z,42.90
2019-02-18T11:43:49.213Z,43.00
2019-02-18T11:46:18.285Z,43.00
2019-02-18T11:48:46.599Z,43.20
2019-02-18T11:51:14.881Z,43.20
2019-02-18T11:53:43.634Z,43.20
2019-02-18T11:56:11.916Z,43.30
2019-02-18T11:58:40.220Z,43.30
2019-02-18T12:01:09.184Z,43.50
2019-02-18T12:03:37.567Z,43.50
2019-02-18T12:06:05.858Z,43.50
2019-02-18T12:08:34.210Z,43.50
2019-02-18T12:11:02.537Z,43.50
2019-02-18T12:13:31.274Z,43.60
2019-02-18T12:16:00.054Z,43.80
2019-02-18T12:18:31.118Z,43.90
2019-02-18T12:20:59.169Z,44.00
2019-02-18T12:23:29.138Z,43.90
2019-02-18T12:25:57.443Z,44.10
2019-02-18T12:28:25.763Z,43.90
2019-02-18T12:30:54.428Z,44.00
2019-02-18T12:33:23.038Z,44.10
2019-02-18T12:35:51.690Z,44.20
2019-02-18T12:38:20.276Z,44.20
2019-02-18T12:40:48.578Z,44.30
2019-02-18T12:43:17.139Z,44.40
2019-02-18T12:45:45.464Z,44.60
2019-02-18T12:48:14.094Z,44.50
2019-02-18T12:50:42.383Z,44.50
2019-02-18T12:53:11.015Z,44.50
2019-02-18T12:55:39.647Z,44.60
2019-02-18T12:58:08.035Z,44.60
2019-02-18T13:00:36.400Z,44.70
2019-02-18T13:03:05.394Z,44.70
2019-02-18T13:05:33.773Z,44.90
2019-02-18T13:08:02.868Z,44.80
2019-02-18T13:10:34.882Z,44.80
2019-02-18T13:13:01.983Z,44.80
2019-02-18T13:15:30.675Z,44.80
2019-02-18T13:17:59.465Z,44.80
2019-02-18T13:20:28.147Z,44.90
2019-02-18T13:22:56.513Z,44.90
2019-02-18T13:25:25.211Z,45.00
2019-02-18T13:27:53.897Z,44.90
2019-02-18T13:30:22.255Z,45.10
2019-02-18T13:32:50.625Z,45.20
2019-02-18T13:35:18.999Z,44.90
2019-02-18T13:37:47.303Z,45.00
2019-02-18T13:40:16.330Z,45.00
2019-02-18T13:42:45.005Z,45.10
2019-02-18T13:45:15.429Z,44.90
2019-02-18T13:47:43.735Z,45.20
2019-02-18T13:50:14.962Z,45.40
2019-02-18T13:52:43.544Z,45.40
2019-02-18T13:55:13.030Z,45.20
2019-02-18T13:57:41.816Z,45.50
2019-02-18T14:00:19.668Z,45.50
2019-02-18T14:02:48.915Z,45.70
2019-02-18T14:05:23.743Z,45.30
2019-02-18T14:07:55.402Z,44.90
2019-02-18T14:10:25.596Z,44.90
2019-02-18T14:12:53.942Z,44.90
2019-02-18T14:15:23.955Z,44.90
2019-02-18T14:17:52.319Z,44.90
2019-02-18T14:20:20.646Z,44.70
2019-02-18T14:22:49.363Z,44.80
2019-02-18T14:25:22.859Z,44.70
2019-02-18T14:27:51.552Z,44.80
2019-02-18T14:30:19.857Z,44.80
2019-02-18T14:32:48.506Z,44.90
2019-02-18T14:35:18.714Z,44.90
2019-02-18T14:37:50.899Z,45.00
2019-02-18T14:40:21.430Z,45.00
2019-02-18T14:42:50.129Z,45.10
2019-02-18T14:45:18.833Z,45.10
2019-02-18T14:47:47.490Z,45.10
2019-02-18T14:50:18.831Z,45.00
2019-02-18T14:52:47.584Z,45.00
2019-02-18T14:55:15.952Z,45.10
2019-02-18T14:57:44.687Z,45.30
2019-02-18T15:00:19.590Z,45.20
2019-02-18T15:02:48.125Z,45.20
2019-02-18T15:05:16.802Z,45.50
2019-02-18T15:07:45.572Z,45.50
2019-02-18T15:10:14.994Z,45.50
2019-02-18T15:12:43.363Z,45.60
2019-02-18T15:15:11.958Z,45.70
2019-02-18T15:17:40.631Z,45.70
2019-02-18T15:20:11.355Z,45.90
2019-02-18T15:22:39.454Z,45.90
2019-02-18T15:25:09.336Z,45.80
2019-02-18T15:27:38.049Z,45.80
2019-02-18T15:30:12.520Z,45.90
2019-02-18T15:32:40.802Z,45.80
2019-02-18T15:35:09.420Z,45.90
2019-02-18T15:37:37.720Z,45.90
2019-02-18T15:40:09.487Z,45.90
2019-02-18T15:42:42.320Z,45.90
2019-02-18T15:45:08.691Z,45.90
2019-02-18T15:47:37.077Z,46.60
2019-02-18T15:50:10.884Z,46.00
2019-02-18T15:52:39.574Z,46.10
2019-02-18T15:55:08.704Z,46.20
2019-02-18T15:57:37.125Z,46.20
2019-02-18T16:00:08.990Z,46.20
2019-02-18T16:02:37.565Z,46.40
2019-02-18T16:05:06.434Z,46.40
2019-02-18T16:07:35.165Z,46.60
2019-02-18T16:10:04.703Z,46.30
2019-02-18T16:12:33.343Z,46.20
2019-02-18T16:15:01.882Z,46.20
2019-02-18T16:17:30.250Z,46.30
2019-02-18T16:19:58.650Z,46.30
2019-02-18T16:22:27.023Z,46.20
2019-02-18T16:24:55.308Z,46.10
2019-02-18T16:27:23.863Z,46.30
2019-02-18T16:29:52.223Z,46.20
2019-02-18T16:32:20.504Z,45.80
2019-02-18T16:34:48.882Z,45.70
2019-02-18T16:37:17.583Z,45.70
2019-02-18T16:39:46.227Z,45.70
2019-02-18T16:42:14.919Z,45.70
2019-02-18T16:44:43.290Z,45.90
2019-02-18T16:47:11.702Z,45.90
2019-02-18T16:49:40.357Z,45.80
2019-02-18T16:52:09.448Z,45.90
2019-02-18T16:54:37.829Z,45.80
2019-02-18T16:57:06.127Z,46.10
2019-02-18T16:59:34.782Z,46.10
2019-02-18T17:02:03.112Z,45.80
2019-02-18T17:04:31.474Z,46.10
2019-02-18T17:07:00.443Z,46.10
2019-02-18T17:09:29.119Z,46.10
2019-02-18T17:11:57.670Z,46.20
2019-02-18T17:14:26.402Z,46.20
2019-02-18T17:16:54.992Z,46.20
2019-02-18T17:19:23.676Z,46.10
2019-02-18T17:21:52.044Z,46.30
2019-02-18T17:24:21.134Z,46.20
2019-02-18T17:26:49.704Z,46.30
2019-02-18T17:29:18.406Z,46.20
2019-02-18T17:31:47.097Z,46.30
2019-02-18T17:34:15.478Z,46.30
2019-02-18T17:36:44.055Z,46.40
2019-02-18T17:39:13.047Z,46.30
2019-02-18T17:41:41.411Z,46.80
2019-02-18T17:44:09.697Z,46.40
2019-02-18T17:46:38.082Z,46.40
2019-02-18T17:49:06.777Z,46.50
2019-02-18T17:51:35.558Z,46.50
2019-02-18T17:54:04.191Z,46.80
2019-02-18T17:56:33.046Z,46.60
2019-02-18T17:59:01.335Z,46.60
2019-02-18T18:01:29.739Z,46.80
2019-02-18T18:03:58.434Z,46.60
2019-02-18T18:06:27.000Z,46.50
2019-02-18T18:08:58.415Z,46.60
2019-02-18T18:11:27.397Z,46.40
2019-02-18T18:13:56.086Z,46.30
2019-02-18T18:16:24.775Z,46.10
2019-02-18T18:18:53.167Z,46.40
2019-02-18T18:21:21.495Z,46.10
2019-02-18T18:23:50.232Z,46.20
2019-02-18T18:26:18.626Z,46.10
2019-02-18T18:28:47.299Z,45.90
2019-02-18T18:31:15.879Z,45.70
2019-02-18T18:33:44.565Z,45.80
2019-02-18T18:36:13.324Z,45.90
2019-02-18T18:38:41.731Z,45.90
2019-02-18T18:41:10.422Z,45.90
2019-02-18T18:43:39.304Z,46.00
2019-02-18T18:46:07.633Z,46.10
2019-02-18T18:48:36.263Z,45.90
2019-02-18T18:51:04.580Z,45.90
2019-02-18T18:53:32.876Z,45.90
2019-02-18T18:56:01.192Z,45.70
2019-02-18T18:58:30.292Z,45.70
2019-02-18T19:00:58.886Z,45.70
2019-02-18T19:03:27.564Z,45.50
2019-02-18T19:05:56.160Z,45.50
2019-02-18T19:08:24.947Z,45.50
2019-02-18T19:10:53.298Z,45.70
2019-02-18T19:13:22.336Z,45.70
2019-02-18T19:15:51.127Z,46.10
2019-02-18T19:18:19.785Z,45.90
2019-02-18T19:20:48.416Z,46.00
2019-02-18T19:23:17.475Z,46.10
2019-02-18T19:25:45.899Z,46.10
2019-02-18T19:28:15.063Z,46.00
2019-02-18T19:30:43.463Z,45.80
2019-02-18T19:36:40.114Z,45.70
2019-02-18T19:39:08.623Z,45.90
2019-02-18T19:41:37.403Z,46.10
2019-02-18T19:44:06.211Z,46.30
2019-02-18T19:46:34.780Z,46.10
2019-02-18T19:49:03.583Z,46.10
2019-02-18T19:51:32.060Z,46.20
2019-02-18T19:54:02.374Z,46.20
2019-02-18T19:56:30.831Z,46.00
2019-02-18T19:58:59.218Z,45.80
2019-02-18T20:01:27.754Z,45.80
2019-02-18T20:03:56.411Z,45.70
2019-02-18T20:09:56.995Z,45.90
2019-02-18T20:12:25.370Z,46.30
2019-02-18T20:14:53.931Z,46.80
2019-02-18T20:17:22.546Z,46.50
2019-02-18T20:19:51.243Z,46.40
2019-02-18T20:22:19.920Z,46.40
2019-02-18T20:24:48.539Z,46.10
2019-02-18T20:27:17.231Z,45.70
2019-02-18T20:29:45.617Z,45.50
2019-02-18T20:32:14.363Z,45.20
2019-02-18T20:34:42.949Z,45.00
2019-02-18T20:37:11.622Z,44.70
2019-02-18T20:39:40.044Z,44.50
2019-02-18T20:42:08.440Z,44.40
2019-02-18T20:44:36.805Z,44.30
2019-02-18T20:47:05.116Z,44.40
2019-02-18T20:49:33.940Z,44.50
2019-02-18T20:52:02.724Z,44.50
2019-02-18T20:54:31.048Z,44.80
2019-02-18T20:56:59.482Z,44.90
2019-02-18T20:59:28.053Z,44.90
2019-02-18T21:01:56.359Z,45.00
2019-02-18T21:04:25.426Z,44.80
2019-02-18T21:06:53.823Z,44.90
2019-02-18T21:09:22.115Z,45.10
2019-02-18T21:11:50.774Z,45.00
2019-02-18T21:14:19.054Z,45.20
2019-02-18T21:16:47.636Z,45.40
2019-02-18T21:19:15.972Z,45.40
2019-02-18T21:21:44.327Z,45.50
2019-02-18T21:24:12.705Z,45.60
2019-02-18T21:26:41.011Z,45.70
2019-02-18T21:29:09.731Z,45.80
2019-02-18T21:31:38.025Z,45.80
2019-02-18T21:34:06.315Z,45.90
2019-02-18T21:36:35.120Z,45.80
2019-02-18T21:39:05.699Z,45.90
2019-02-18T21:41:34.300Z,45.90
2019-02-18T21:44:02.875Z,46.00
2019-02-18T21:46:31.299Z,46.10
2019-02-18T21:48:59.619Z,46.20
2019-02-18T21:51:28.244Z,46.20
2019-02-18T21:53:56.801Z,46.50
2019-02-18T21:56:26.086Z,46.20
2019-02-18T21:58:54.395Z,46.10
2019-02-18T22:01:22.768Z,46.20
2019-02-18T22:03:51.066Z,46.20
2019-02-18T22:06:19.816Z,46.20
2019-02-18T22:08:48.135Z,46.30
2019-02-18T22:11:16.517Z,46.30
2019-02-18T22:13:44.845Z,46.30
2019-02-18T22:16:13.258Z,46.20
2019-02-18T22:18:41.550Z,46.20
2019-02-18T22:21:10.299Z,46.20
2019-02-18T22:23:38.983Z,46.30
2019-02-18T22:26:07.568Z,46.40
2019-02-18T22:28:36.156Z,46.50
2019-02-18T22:31:04.743Z,46.60
2019-02-18T22:33:33.065Z,46.60
2019-02-18T22:36:01.393Z,46.60
2019-02-18T22:38:30.087Z,46.50
2019-02-18T22:40:59.064Z,46.60
2019-02-18T22:43:27.442Z,46.80
2019-02-18T22:45:55.750Z,46.90
2019-02-18T22:48:24.302Z,46.70
2019-02-18T22:50:52.605Z,46.70
2019-02-18T22:53:20.998Z,46.70
2019-02-18T22:55:49.567Z,46.90
2019-02-18T22:58:18.581Z,46.90
2019-02-18T23:00:54.693Z,46.80
2019-02-18T23:03:23.508Z,46.70
2019-02-18T23:05:51.795Z,46.50
2019-02-18T23:08:20.448Z,46.60
2019-02-18T23:10:48.742Z,46.60
2019-02-18T23:13:17.538Z,46.50
2019-02-18T23:15:46.094Z,46.50
2019-02-18T23:18:14.814Z,46.00
2019-02-18T23:20:43.477Z,46.10
2019-02-18T23:23:12.170Z,45.90
2019-02-18T23:25:40.473Z,46.00
2019-02-18T23:28:09.115Z,45.80
2019-02-18T23:30:38.107Z,45.00
2019-02-18T23:33:06.402Z,45.30
2019-02-18T23:35:34.992Z,45.40
2019-02-18T23:38:03.550Z,45.40
2019-02-18T23:40:32.133Z,45.70
2019-02-18T23:43:00.678Z,45.90
2019-02-18T23:45:29.007Z,45.90
2019-02-18T23:47:57.578Z,45.90
2019-02-18T23:50:25.883Z,45.90
2019-02-18T23:52:54.555Z,45.90
2019-02-18T23:55:22.844Z,45.90
2019-02-18T23:57:51.146Z,45.90
